Time;durP1;ratioP1;P1;durP2;ratioP2;P2;SDS_P1;SDS_P2;PMS_P1;PMS_P2;Temp;Humidity;BMP_temperature;BMP_pressure;BME280_temperature;BME280_humidity;BME280_pressure;Samples;Min_cycle;Max_cycle;Signal;HPM_P1;HPM_P2
2021/12/17 00:04:54;;;;;;;62.10;29.60;;;7.20;99.90;;;;;;5050881;28;20524;-76
2021/12/17 00:07:24;;;;;;;57.27;29.10;;;7.20;99.90;;;;;;5051241;28;20485;-76
2021/12/17 00:09:52;;;;;;;62.17;29.73;;;7.30;99.90;;;;;;5051322;28;20488;-76
2021/12/17 00:12:21;;;;;;;60.53;30.20;;;7.20;99.90;;;;;;5051296;28;20460;-76
2021/12/17 00:14:50;;;;;;;61.40;30.30;;;7.20;99.90;;;;;;5051221;28;20448;-76
2021/12/17 00:17:24;;;;;;;61.93;30.07;;;7.20;99.90;;;;;;5051040;28;20480;-76
2021/12/17 00:20:10;;;;;;;57.23;29.53;;;7.20;99.90;;;;;;5051028;28;20456;-76
2021/12/17 00:50:30;;;;;;;56.13;30.63;;;7.20;99.90;;;;;;5050854;28;20928;-77
2021/12/17 00:52:56;;;;;;;60.67;30.03;;;7.20;99.90;;;;;;5050651;28;20463;-77
2021/12/17 00:55:23;;;;;;;58.13;30.27;;;7.20;99.90;;;;;;5053253;28;20859;-77
2021/12/17 00:57:50;;;;;;;59.63;30.13;;;7.20;99.90;;;;;;5054359;28;20526;-77
2021/12/17 01:00:20;;;;;;;58.60;30.30;;;7.20;99.90;;;;;;5054851;28;20542;-77
2021/12/17 01:02:48;;;;;;;65.50;30.20;;;7.20;99.90;;;;;;5054433;28;20509;-77
2021/12/17 01:05:18;;;;;;;58.90;30.60;;;7.20;99.90;;;;;;5054404;28;20455;-77
2021/12/17 01:07:47;;;;;;;67.13;31.17;;;7.20;99.90;;;;;;5054170;28;20484;-77
2021/12/17 01:10:18;;;;;;;56.40;30.50;;;7.20;99.90;;;;;;5054529;28;20510;-77
2021/12/17 01:12:45;;;;;;;52.07;27.00;;;7.20;99.90;;;;;;5054478;28;20514;-77
2021/12/17 01:15:14;;;;;;;54.00;28.70;;;7.20;99.90;;;;;;5054451;28;20456;-77
2021/12/17 01:17:43;;;;;;;51.77;27.00;;;7.20;99.90;;;;;;5054101;28;20558;-77
2021/12/17 01:20:28;;;;;;;52.40;27.73;;;7.20;99.90;;;;;;5054038;28;20449;-77
2021/12/17 01:23:09;;;;;;;53.23;26.70;;;7.20;99.90;;;;;;5054133;28;20536;-77
2021/12/17 01:35:19;;;;;;;48.03;25.30;;;7.20;99.90;;;;;;5054323;28;20538;-77
2021/12/17 01:37:02;;;;;;;41.00;23.30;;;7.30;99.90;;;;;;5053297;28;20815;-77
2021/12/17 01:42:18;;;;;;;38.73;20.73;;;7.30;99.90;;;;;;5053681;28;20979;-77
2021/12/17 01:44:45;;;;;;;39.37;21.20;;;7.30;99.90;;;;;;5053638;28;20456;-77
2021/12/17 01:47:13;;;;;;;39.73;20.43;;;7.30;99.90;;;;;;5053709;28;20491;-77
2021/12/17 02:00:48;;;;;;;32.20;18.60;;;7.30;99.90;;;;;;5053438;28;20526;-77
2021/12/17 02:03:15;;;;;;;41.13;20.10;;;7.30;99.90;;;;;;5053341;28;20461;-77
2021/12/17 02:05:43;;;;;;;36.97;19.20;;;7.20;99.90;;;;;;5053326;28;20448;-77
2021/12/17 02:08:12;;;;;;;34.23;19.80;;;7.20;99.90;;;;;;5054467;23;20509;-70
2021/12/17 02:11:20;;;;;;;38.20;19.30;;;7.30;99.90;;;;;;5013171;28;20912;-70
2021/12/17 02:22:36;;;;;;;31.87;18.60;;;7.20;99.90;;;;;;4994000;28;20427;-69
2021/12/17 02:30:48;;;;;;;33.77;18.70;;;7.20;99.90;;;;;;5013185;28;20497;-69
2021/12/17 02:33:15;;;;;;;41.40;20.07;;;7.20;99.90;;;;;;5013155;28;20454;-70
2021/12/17 02:35:44;;;;;;;33.83;18.33;;;7.20;99.90;;;;;;5013349;28;20443;-69
2021/12/17 02:38:14;;;;;;;32.03;19.20;;;7.20;99.90;;;;;;5014085;28;20533;-70
2021/12/17 02:46:10;;;;;;;38.33;18.70;;;7.20;99.90;;;;;;4993185;28;20427;-69
2021/12/17 02:48:37;;;;;;;35.23;19.50;;;7.20;99.90;;;;;;5003460;28;20524;-69
2021/12/17 02:51:04;;;;;;;36.83;18.60;;;7.20;99.90;;;;;;5012965;28;20458;-70
2021/12/17 02:53:32;;;;;;;35.53;18.80;;;7.20;99.90;;;;;;5012641;28;20894;-69
2021/12/17 02:56:01;;;;;;;38.03;19.13;;;7.20;99.90;;;;;;5012562;28;20446;-70
2021/12/17 02:58:30;;;;;;;33.87;19.40;;;7.20;99.90;;;;;;5012685;28;21262;-70
2021/12/17 03:00:59;;;;;;;37.57;18.87;;;7.20;99.90;;;;;;5012738;28;20450;-70
2021/12/17 03:03:30;;;;;;;29.37;17.20;;;7.20;99.90;;;;;;5012349;28;20505;-69
2021/12/17 03:05:57;;;;;;;33.67;18.87;;;7.20;99.90;;;;;;5012478;28;20545;-70
2021/12/17 03:08:24;;;;;;;34.77;20.13;;;7.20;99.90;;;;;;5012313;28;20474;-70
2021/12/17 03:10:53;;;;;;;35.23;18.87;;;7.20;99.90;;;;;;5012160;28;20508;-70
2021/12/17 03:13:22;;;;;;;36.63;19.50;;;7.20;99.90;;;;;;5012256;28;20485;-70
2021/12/17 03:15:53;;;;;;;36.97;19.50;;;7.20;99.90;;;;;;5011925;28;20450;-70
2021/12/17 03:24:03;;;;;;;33.47;17.63;;;7.20;99.90;;;;;;5012243;28;20434;-70
2021/12/17 03:26:32;;;;;;;35.67;18.60;;;7.20;99.90;;;;;;5012138;28;20450;-70
2021/12/17 03:29:02;;;;;;;34.23;18.03;;;7.20;99.90;;;;;;5011902;28;20520;-70
2021/12/17 03:31:29;;;;;;;33.63;18.23;;;7.20;99.90;;;;;;5011973;28;20931;-69
2021/12/17 03:34:07;;;;;;;28.67;16.20;;;7.20;99.90;;;;;;5012237;28;20446;-70
2021/12/17 03:36:34;;;;;;;31.87;17.77;;;7.20;99.90;;;;;;5012029;28;20540;-70
2021/12/17 03:39:01;;;;;;;28.97;16.00;;;7.20;99.90;;;;;;5011970;28;20474;-70
2021/12/17 03:41:35;;;;;;;27.63;16.80;;;7.20;99.90;;;;;;5012065;28;20942;-69
2021/12/17 03:44:04;;;;;;;25.87;15.43;;;7.10;99.90;;;;;;5011544;28;20464;-69
2021/12/17 03:46:31;;;;;;;22.80;14.10;;;7.10;99.90;;;;;;5011868;28;20473;-69
2021/12/17 03:48:57;;;;;;;28.40;14.10;;;7.10;99.90;;;;;;5011659;28;20897;-69
2021/12/17 03:51:24;;;;;;;23.73;13.83;;;7.10;99.90;;;;;;5011425;28;20451;-69
2021/12/17 03:53:53;;;;;;;23.50;14.13;;;7.10;99.90;;;;;;5011862;28;20972;-69
2021/12/17 03:56:21;;;;;;;21.17;14.57;;;7.10;99.90;;;;;;5011537;28;20946;-69
2021/12/17 03:58:49;;;;;;;24.30;14.40;;;7.20;99.90;;;;;;5011782;28;20518;-70
2021/12/17 04:01:17;;;;;;;24.23;14.77;;;7.20;99.90;;;;;;5011861;28;20502;-69
2021/12/17 04:03:44;;;;;;;24.50;14.50;;;7.20;99.90;;;;;;5011443;28;20451;-69
2021/12/17 04:06:11;;;;;;;26.33;16.20;;;7.10;99.90;;;;;;5011565;28;20462;-69
2021/12/17 04:08:37;;;;;;;29.87;16.40;;;7.20;99.90;;;;;;5011473;28;20485;-69
2021/12/17 04:11:06;;;;;;;31.53;18.13;;;7.10;99.90;;;;;;5011595;28;20597;-69
2021/12/17 04:13:36;;;;;;;28.20;16.87;;;7.10;99.90;;;;;;5012058;28;20454;-69
2021/12/17 04:16:07;;;;;;;30.37;16.20;;;7.10;99.90;;;;;;5010436;28;20457;-69
2021/12/17 04:18:37;;;;;;;30.53;17.60;;;7.10;99.90;;;;;;5011041;28;21028;-69
2021/12/17 04:21:09;;;;;;;30.93;16.80;;;7.10;99.90;;;;;;5011766;28;20505;-70
2021/12/17 04:23:36;;;;;;;29.47;15.97;;;7.10;99.90;;;;;;5011790;28;20465;-69
2021/12/17 04:26:02;;;;;;;29.60;16.40;;;7.10;99.90;;;;;;5011361;28;20446;-70
2021/12/17 04:28:29;;;;;;;24.53;15.53;;;7.10;99.90;;;;;;5011378;28;20462;-69
2021/12/17 04:30:56;;;;;;;25.13;15.90;;;7.10;99.90;;;;;;5014976;28;20485;-69
2021/12/17 04:33:22;;;;;;;23.60;14.60;;;7.20;99.90;;;;;;5015114;28;20454;-69
2021/12/17 04:35:50;;;;;;;32.23;15.40;;;7.20;99.90;;;;;;5015277;28;20800;-70
2021/12/17 04:38:18;;;;;;;28.33;15.33;;;7.10;99.90;;;;;;5015172;28;20474;-69
2021/12/17 04:40:45;;;;;;;24.50;15.33;;;7.10;99.90;;;;;;5015351;28;20450;-69
2021/12/17 04:43:18;;;;;;;26.43;14.83;;;7.10;99.90;;;;;;5015018;28;20949;-69
2021/12/17 04:45:52;;;;;;;21.63;12.90;;;7.10;99.90;;;;;;5014855;28;20476;-69
2021/12/17 04:59:17;;;;;;;19.80;11.93;;;7.20;99.90;;;;;;5015005;28;20437;-70
2021/12/17 05:01:43;;;;;;;18.57;12.40;;;7.20;99.90;;;;;;5014597;28;20964;-70
2021/12/17 05:04:10;;;;;;;19.57;12.60;;;7.20;99.90;;;;;;5015104;28;20554;-69
2021/12/17 05:06:38;;;;;;;21.67;13.30;;;7.20;99.90;;;;;;5014579;28;20904;-70
2021/12/17 05:09:11;;;;;;;28.10;13.73;;;7.20;99.90;;;;;;5014680;28;20856;-69
2021/12/17 05:20:11;;;;;;;21.07;12.53;;;7.20;99.90;;;;;;4995080;28;20423;-69
2021/12/17 05:22:39;;;;;;;22.67;12.87;;;7.10;99.90;;;;;;4995111;28;20458;-70
2021/12/17 05:25:06;;;;;;;19.97;12.53;;;7.10;99.90;;;;;;4994527;28;20461;-69
2021/12/17 05:27:33;;;;;;;21.50;12.63;;;7.10;99.90;;;;;;4995079;28;20478;-69
2021/12/17 05:30:00;;;;;;;18.40;12.40;;;7.10;99.90;;;;;;5000419;28;20537;-69
2021/12/17 05:32:27;;;;;;;19.53;12.67;;;7.10;99.90;;;;;;5014481;28;20458;-69
2021/12/17 05:34:53;;;;;;;20.90;12.33;;;7.10;99.90;;;;;;5014264;28;20457;-70
2021/12/17 05:37:20;;;;;;;18.30;12.20;;;7.10;99.90;;;;;;5014157;28;20478;-69
2021/12/17 05:39:48;;;;;;;21.73;12.03;;;7.00;99.90;;;;;;5013634;28;20450;-70
2021/12/17 05:42:15;;;;;;;18.90;12.13;;;7.00;99.90;;;;;;5014526;28;20508;-70
2021/12/17 05:44:45;;;;;;;21.60;12.40;;;7.00;99.90;;;;;;5014070;28;20482;-69
2021/12/17 05:47:12;;;;;;;21.83;12.53;;;7.00;99.90;;;;;;5014039;28;21043;-69
2021/12/17 05:49:38;;;;;;;25.90;13.97;;;7.00;99.90;;;;;;5014194;28;20504;-70
2021/12/17 05:52:06;;;;;;;19.43;12.90;;;7.00;99.90;;;;;;5013456;28;20512;-69
2021/12/17 05:54:32;;;;;;;24.63;12.93;;;7.00;99.90;;;;;;5014275;28;20458;-69
2021/12/17 05:57:00;;;;;;;18.97;12.23;;;7.00;99.90;;;;;;5013698;28;20446;-69
2021/12/17 05:59:33;;;;;;;22.53;12.53;;;7.00;99.90;;;;;;5013896;28;20532;-69
2021/12/17 06:02:03;;;;;;;19.63;12.23;;;7.10;99.90;;;;;;5013230;28;20494;-70
2021/12/17 06:04:30;;;;;;;19.50;12.07;;;7.10;99.90;;;;;;5013814;28;20946;-70
2021/12/17 06:06:57;;;;;;;20.97;11.77;;;7.10;99.90;;;;;;5013480;28;20454;-70
2021/12/17 06:09:23;;;;;;;21.93;13.60;;;7.10;99.90;;;;;;5013868;28;20446;-69
2021/12/17 06:11:50;;;;;;;19.77;13.20;;;7.10;99.90;;;;;;5012792;28;20521;-69
2021/12/17 06:14:18;;;;;;;21.73;13.50;;;7.10;99.90;;;;;;5013870;28;20517;-70
2021/12/17 06:16:44;;;;;;;27.27;15.10;;;7.10;99.90;;;;;;5012423;28;20462;-69
2021/12/17 06:19:13;;;;;;;21.67;13.60;;;7.10;99.90;;;;;;5013604;28;20536;-69
2021/12/17 06:21:40;;;;;;;25.60;15.33;;;7.10;99.90;;;;;;5013759;28;20468;-69
2021/12/17 06:24:07;;;;;;;29.00;15.63;;;7.10;99.90;;;;;;5013474;28;20954;-70
2021/12/17 06:26:34;;;;;;;24.07;15.37;;;7.10;99.90;;;;;;5013073;28;20454;-69
2021/12/17 06:29:00;;;;;;;21.23;13.20;;;7.10;99.90;;;;;;5013177;28;20462;-70
2021/12/17 06:31:28;;;;;;;20.53;13.53;;;7.10;99.90;;;;;;5012645;28;20525;-69
2021/12/17 06:33:55;;;;;;;21.60;13.33;;;7.10;99.90;;;;;;5013208;28;20942;-69
2021/12/17 06:36:22;;;;;;;22.47;13.00;;;7.10;99.90;;;;;;5012839;28;20903;-69
2021/12/17 06:38:48;;;;;;;31.33;13.60;;;7.10;99.90;;;;;;5013172;28;20467;-69
2021/12/17 06:41:15;;;;;;;24.70;13.57;;;7.00;99.90;;;;;;5013109;28;20446;-70
2021/12/17 06:43:43;;;;;;;20.47;13.20;;;7.10;99.90;;;;;;5012875;28;20458;-69
2021/12/17 06:46:20;;;;;;;29.60;14.10;;;7.10;99.90;;;;;;5012704;28;20450;-69
2021/12/17 06:48:55;;;;;;;20.13;12.00;;;7.10;99.90;;;;;;5012980;28;20476;-69
2021/12/17 06:59:47;;;;;;;20.07;12.27;;;7.00;99.90;;;;;;5012928;28;20441;-71
2021/12/17 07:10:37;;;;;;;13.20;9.10;;;6.90;99.90;;;;;;5011602;28;20486;-72
2021/12/17 07:21:53;;;;;;;16.20;9.70;;;6.90;99.90;;;;;;4992905;28;20463;-71
2021/12/17 07:33:04;;;;;;;17.40;10.00;;;6.90;99.90;;;;;;5012338;28;20425;-71
2021/12/17 07:35:45;;;;;;;19.63;11.50;;;6.90;99.90;;;;;;5011813;28;20453;-71
2021/12/17 07:40:58;;;;;;;20.63;10.80;;;6.90;99.90;;;;;;5011711;28;20584;-70
2021/12/17 07:43:36;;;;;;;22.00;11.00;;;6.90;99.90;;;;;;5012018;28;20508;-71
2021/12/17 07:46:04;;;;;;;22.43;11.83;;;6.90;99.90;;;;;;5011425;28;20477;-71
2021/12/17 07:48:32;;;;;;;28.00;11.47;;;6.90;99.90;;;;;;5011341;28;20469;-70
2021/12/17 07:50:59;;;;;;;22.33;12.80;;;6.90;99.90;;;;;;5011021;28;20548;-71
2021/12/17 07:53:27;;;;;;;18.70;11.70;;;6.90;99.90;;;;;;5010963;28;20458;-70
2021/12/17 07:55:53;;;;;;;19.77;10.97;;;6.90;99.90;;;;;;5021605;28;20457;-71
2021/12/17 07:58:20;;;;;;;25.73;12.57;;;6.90;99.90;;;;;;5006197;28;20508;-71
2021/12/17 08:00:47;;;;;;;17.90;10.17;;;6.90;99.90;;;;;;5007369;28;20946;-73
2021/12/17 08:03:14;;;;;;;20.00;10.83;;;6.80;99.90;;;;;;5014015;28;20459;-71
2021/12/17 08:05:42;;;;;;;26.57;11.33;;;6.80;99.90;;;;;;5012203;28;20562;-71
2021/12/17 08:08:09;;;;;;;18.00;11.10;;;6.80;99.90;;;;;;5008929;28;20502;-71
2021/12/17 08:10:37;;;;;;;18.80;10.80;;;6.80;99.90;;;;;;5010131;28;20910;-72
2021/12/17 08:13:06;;;;;;;19.10;10.40;;;6.80;99.90;;;;;;5005788;28;20462;-71
2021/12/17 08:15:39;;;;;;;24.10;12.90;;;6.80;99.90;;;;;;5010516;28;20965;-71
2021/12/17 08:18:26;;;;;;;26.40;11.87;;;6.80;99.90;;;;;;5009283;28;20573;-72
2021/12/17 08:26:42;;;;;;;19.15;11.55;;;6.80;99.90;;;;;;5047863;23;20448;-74
2021/12/17 08:31:56;;;;;;;23.93;11.07;;;6.90;99.90;;;;;;5044588;28;21038;-74
2021/12/17 08:34:23;;;;;;;16.63;10.37;;;6.90;99.90;;;;;;5049688;28;20448;-74
2021/12/17 08:36:50;;;;;;;18.27;10.83;;;6.90;99.90;;;;;;5033178;28;20469;-74
2021/12/17 08:39:17;;;;;;;12.73;9.10;;;6.90;99.90;;;;;;5029393;28;20499;-73
2021/12/17 08:41:49;;;;;;;13.37;7.63;;;7.00;99.90;;;;;;5029458;28;20449;-74
2021/12/17 08:44:16;;;;;;;12.80;8.30;;;6.90;99.90;;;;;;5029998;28;20504;-74
2021/12/17 08:46:43;;;;;;;16.00;8.60;;;7.00;99.90;;;;;;5030156;28;20466;-74
2021/12/17 08:49:10;;;;;;;9.10;6.77;;;7.00;99.90;;;;;;5030991;28;20487;-74
2021/12/17 08:51:37;;;;;;;10.27;7.23;;;7.00;99.90;;;;;;5030840;28;20480;-74
2021/12/17 08:54:04;;;;;;;10.27;7.27;;;7.00;99.90;;;;;;5031133;28;20460;-74
2021/12/17 08:56:32;;;;;;;9.13;7.10;;;7.00;99.90;;;;;;5030048;28;20473;-75
2021/12/17 08:59:02;;;;;;;11.17;7.07;;;7.00;99.90;;;;;;5029289;28;20499;-74
2021/12/17 09:01:29;;;;;;;12.43;7.67;;;7.00;99.90;;;;;;5030317;28;20445;-74
2021/12/17 09:03:56;;;;;;;13.80;8.93;;;7.10;99.90;;;;;;5028984;28;20449;-72
2021/12/17 09:06:26;;;;;;;12.77;8.70;;;7.20;99.90;;;;;;5029625;28;20480;-75
2021/12/17 09:08:54;;;;;;;13.40;7.80;;;7.20;99.90;;;;;;5028479;28;20458;-75
2021/12/17 09:11:21;;;;;;;12.40;7.87;;;7.30;99.90;;;;;;5029463;28;20563;-76
2021/12/17 09:13:48;;;;;;;14.20;8.77;;;7.30;99.90;;;;;;5030173;28;20445;-75
2021/12/17 09:16:16;;;;;;;11.80;8.17;;;7.20;99.90;;;;;;5031600;28;20470;-75
2021/12/17 09:18:44;;;;;;;15.83;7.43;;;7.30;99.90;;;;;;5033324;28;20514;-75
2021/12/17 09:21:11;;;;;;;10.63;7.30;;;7.30;99.90;;;;;;5033009;28;20448;-75
2021/12/17 09:23:39;;;;;;;12.13;7.60;;;7.30;99.90;;;;;;5033887;28;20979;-76
2021/12/17 09:26:05;;;;;;;9.47;7.00;;;7.30;99.90;;;;;;5030328;28;21185;-76
2021/12/17 09:28:33;;;;;;;12.63;7.67;;;7.30;99.90;;;;;;5033655;28;20875;-76
2021/12/17 09:31:00;;;;;;;14.90;8.20;;;7.40;99.90;;;;;;5032224;28;20683;-76
2021/12/17 09:33:28;;;;;;;12.13;7.43;;;7.40;99.90;;;;;;5033453;28;20507;-76
2021/12/17 09:35:55;;;;;;;11.23;7.40;;;7.40;99.90;;;;;;5032481;28;20488;-76
2021/12/17 09:38:21;;;;;;;10.03;8.20;;;7.40;99.90;;;;;;5032491;28;20453;-76
2021/12/17 09:40:49;;;;;;;13.27;8.30;;;7.50;99.90;;;;;;5033290;28;20531;-76
2021/12/17 09:43:16;;;;;;;11.87;8.20;;;7.50;99.90;;;;;;5033715;28;20457;-75
2021/12/17 09:45:43;;;;;;;11.90;6.80;;;7.50;99.90;;;;;;5032925;28;20477;-76
2021/12/17 09:48:10;;;;;;;12.77;7.47;;;7.50;99.90;;;;;;5032029;28;20464;-75
2021/12/17 09:50:38;;;;;;;10.00;6.80;;;7.50;99.90;;;;;;5032825;28;20461;-75
2021/12/17 09:53:04;;;;;;;11.87;7.40;;;7.60;99.90;;;;;;5031891;28;20949;-76
2021/12/17 09:55:31;;;;;;;9.83;6.60;;;7.60;99.90;;;;;;5030043;28;20892;-76
2021/12/17 09:57:58;;;;;;;12.67;6.80;;;7.60;99.90;;;;;;5031575;28;20503;-75
2021/12/17 10:00:27;;;;;;;8.47;5.70;;;7.60;99.90;;;;;;5031979;28;20445;-73
2021/12/17 10:02:54;;;;;;;12.10;6.97;;;7.60;99.90;;;;;;5031570;28;20446;-73
2021/12/17 10:05:25;;;;;;;12.93;7.10;;;7.60;99.90;;;;;;5029661;28;21062;-74
2021/12/17 10:07:56;;;;;;;11.93;6.60;;;7.60;99.90;;;;;;5031470;28;20453;-73
2021/12/17 10:10:33;;;;;;;12.13;7.00;;;7.60;99.90;;;;;;5028976;28;20892;-73
2021/12/17 10:13:07;;;;;;;11.67;7.30;;;7.70;99.90;;;;;;5032184;28;20500;-74
2021/12/17 10:15:36;;;;;;;9.47;6.27;;;7.60;99.90;;;;;;5033193;28;20476;-74
2021/12/17 10:18:03;;;;;;;12.03;7.27;;;7.70;99.90;;;;;;5033018;28;20938;-74
2021/12/17 10:20:32;;;;;;;12.03;7.13;;;7.70;99.90;;;;;;5032960;28;20877;-75
2021/12/17 10:23:01;;;;;;;12.30;6.50;;;7.70;99.90;;;;;;5033754;28;20454;-74
2021/12/17 10:25:29;;;;;;;10.73;6.80;;;7.70;99.90;;;;;;5032595;28;20477;-74
2021/12/17 10:27:59;;;;;;;12.00;6.57;;;7.80;99.90;;;;;;5031719;28;20456;-74
2021/12/17 10:30:28;;;;;;;11.33;6.97;;;7.80;99.90;;;;;;5032318;28;20461;-73
2021/12/17 10:32:57;;;;;;;10.37;7.17;;;7.80;99.90;;;;;;5032483;28;21008;-74
2021/12/17 10:35:26;;;;;;;12.93;7.30;;;7.80;99.90;;;;;;5012404;28;20470;-74
2021/12/17 10:37:57;;;;;;;10.17;6.87;;;7.90;99.90;;;;;;5020232;28;20503;-74
2021/12/17 10:40:28;;;;;;;12.27;7.13;;;7.90;99.90;;;;;;5032496;28;20503;-74
2021/12/17 10:43:04;;;;;;;9.47;6.50;;;7.90;99.90;;;;;;5032598;28;20445;-74
2021/12/17 10:45:35;;;;;;;15.10;7.53;;;7.90;99.90;;;;;;5030604;28;20472;-73
2021/12/17 10:48:28;;;;;;;12.73;7.10;;;8.00;99.90;;;;;;5031963;28;20449;-74
2021/12/17 10:51:16;;;;;;;12.73;7.50;;;8.00;99.90;;;;;;5032697;28;20449;-74
2021/12/17 10:53:51;;;;;;;12.47;6.67;;;8.10;99.90;;;;;;5016019;28;20452;-74
2021/12/17 10:56:22;;;;;;;11.07;6.80;;;8.00;99.90;;;;;;5031898;28;20884;-74
2021/12/17 10:59:01;;;;;;;11.63;7.20;;;8.00;99.90;;;;;;5031504;28;20460;-74
2021/12/17 11:01:35;;;;;;;11.80;7.70;;;8.10;99.90;;;;;;5032112;28;20453;-74
2021/12/17 11:04:08;;;;;;;15.03;8.20;;;8.10;99.90;;;;;;5029389;28;20528;-75
2021/12/17 11:06:45;;;;;;;12.80;7.37;;;8.20;99.90;;;;;;5028453;28;20515;-74
2021/12/17 11:09:12;;;;;;;13.43;8.23;;;8.20;99.90;;;;;;5012314;28;20454;-74
2021/12/17 11:11:42;;;;;;;11.33;7.87;;;8.30;99.90;;;;;;5011986;28;20486;-74
2021/12/17 11:14:09;;;;;;;13.60;7.97;;;8.30;99.90;;;;;;5030350;28;20457;-72
2021/12/17 11:16:39;;;;;;;9.97;7.20;;;8.30;99.90;;;;;;5029212;28;20984;-74
2021/12/17 11:19:06;;;;;;;13.73;7.40;;;8.30;99.90;;;;;;5023534;28;20453;-74
2021/12/17 11:21:34;;;;;;;12.97;7.73;;;8.30;99.90;;;;;;5031624;28;20450;-74
2021/12/17 11:24:01;;;;;;;12.57;6.77;;;8.40;99.90;;;;;;5029281;28;20949;-74
2021/12/17 11:26:28;;;;;;;10.03;6.60;;;8.40;99.90;;;;;;5029938;28;21016;-75
2021/12/17 11:29:02;;;;;;;10.37;6.23;;;8.50;99.90;;;;;;5030058;28;20455;-74
2021/12/17 11:31:31;;;;;;;12.60;8.40;;;8.50;99.90;;;;;;5031077;28;20477;-75
2021/12/17 11:33:59;;;;;;;11.30;6.83;;;8.50;99.90;;;;;;5031738;28;20454;-74
2021/12/17 11:36:28;;;;;;;10.37;5.87;;;8.50;99.90;;;;;;5031137;28;21048;-75
2021/12/17 11:39:03;;;;;;;8.60;6.50;;;8.60;99.90;;;;;;5030553;28;21172;-73
2021/12/17 11:41:44;;;;;;;9.50;6.20;;;8.60;99.90;;;;;;5030826;28;20452;-74
2021/12/17 11:44:13;;;;;;;12.57;7.23;;;8.60;99.90;;;;;;5027074;28;20466;-74
2021/12/17 11:46:40;;;;;;;8.80;6.17;;;8.60;99.90;;;;;;5028864;28;20488;-73
2021/12/17 11:49:12;;;;;;;13.13;7.43;;;8.60;99.90;;;;;;5028303;28;20793;-74
2021/12/17 11:51:39;;;;;;;10.10;6.50;;;8.60;99.90;;;;;;5026792;28;20481;-74
2021/12/17 11:54:09;;;;;;;11.03;6.80;;;8.60;99.90;;;;;;5024876;28;20457;-75
2021/12/17 11:56:55;;;;;;;12.90;7.40;;;8.60;99.90;;;;;;5022403;28;20504;-74
2021/12/17 11:59:41;;;;;;;13.27;6.87;;;8.60;99.90;;;;;;5025205;28;20499;-74
2021/12/17 12:02:16;;;;;;;12.33;7.63;;;8.60;99.90;;;;;;5025499;28;21001;-74
2021/12/17 12:04:52;;;;;;;8.97;5.87;;;8.60;99.90;;;;;;5023097;28;20457;-74
2021/12/17 12:07:21;;;;;;;9.53;5.77;;;8.60;99.90;;;;;;5025698;28;20484;-74
2021/12/17 12:09:57;;;;;;;15.53;7.13;;;8.60;99.90;;;;;;5028312;28;20492;-74
2021/12/17 12:12:26;;;;;;;13.27;7.50;;;8.60;99.90;;;;;;5028115;28;20568;-74
2021/12/17 12:14:55;;;;;;;14.10;6.57;;;8.60;99.90;;;;;;5029957;28;20449;-75
2021/12/17 12:18:02;;;;;;;10.17;6.03;;;8.60;99.90;;;;;;5025714;28;20487;-74
2021/12/17 12:20:50;;;;;;;10.13;5.83;;;8.60;99.90;;;;;;5029468;28;20465;-73
2021/12/17 12:23:19;;;;;;;12.47;7.00;;;8.60;99.90;;;;;;5029328;28;21024;-73
2021/12/17 12:25:47;;;;;;;11.13;7.00;;;8.60;99.90;;;;;;5026870;28;20484;-75
2021/12/17 12:28:15;;;;;;;10.73;6.60;;;8.60;99.90;;;;;;5029727;28;20507;-73
2021/12/17 12:30:45;;;;;;;16.00;8.57;;;8.50;99.90;;;;;;5030721;28;20476;-73
2021/12/17 12:33:15;;;;;;;12.60;7.90;;;8.50;99.90;;;;;;5029696;28;20604;-73
2021/12/17 12:35:57;;;;;;;10.32;7.07;;;8.50;99.90;;;;;;5027120;28;20536;-74
2021/12/17 12:38:30;;;;;;;12.30;6.80;;;8.50;99.90;;;;;;5029084;28;20267;-73
2021/12/17 12:40:58;;;;;;;12.00;6.27;;;8.60;99.90;;;;;;5027289;28;20515;-73
2021/12/17 12:43:26;;;;;;;12.37;6.67;;;8.60;99.90;;;;;;5026969;28;20544;-71
2021/12/17 12:45:54;;;;;;;20.77;6.90;;;8.60;99.90;;;;;;5030989;28;20552;-72
2021/12/17 12:48:33;;;;;;;13.70;6.70;;;8.60;99.90;;;;;;5028800;28;20453;-73
2021/12/17 12:51:18;;;;;;;8.63;5.67;;;8.70;99.90;;;;;;5033527;28;20198;-71
2021/12/17 12:53:47;;;;;;;9.10;5.90;;;8.60;99.90;;;;;;5033969;28;20453;-72
2021/12/17 12:56:19;;;;;;;8.00;6.20;;;8.80;99.90;;;;;;5027239;28;20287;-72
2021/12/17 12:58:49;;;;;;;8.70;4.73;;;8.90;99.90;;;;;;5028224;28;21025;-72
2021/12/17 13:01:19;;;;;;;6.27;4.37;;;8.80;99.90;;;;;;5038223;28;20449;-72
2021/12/17 13:03:47;;;;;;;9.63;5.67;;;8.80;99.90;;;;;;5034531;28;20449;-71
2021/12/17 13:06:17;;;;;;;10.03;5.57;;;8.80;99.90;;;;;;5032935;28;20559;-72
2021/12/17 13:08:44;;;;;;;9.30;5.50;;;8.80;99.90;;;;;;5033090;28;20457;-72
2021/12/17 13:11:12;;;;;;;22.38;12.38;;;8.80;99.90;;;;;;5033748;28;20441;-71
2021/12/17 13:13:45;;;;;;;19.17;8.23;;;8.80;99.90;;;;;;5034369;28;20222;-74
2021/12/17 13:16:18;;;;;;;11.10;6.93;;;8.70;99.90;;;;;;5033011;28;20547;-71
2021/12/17 13:21:42;;;;;;;10.63;5.57;;;8.60;99.90;;;;;;5035280;28;20453;-72
2021/12/17 13:24:13;;;;;;;8.67;6.60;;;8.70;99.90;;;;;;5034799;28;20460;-73
2021/12/17 13:26:43;;;;;;;11.37;5.50;;;8.70;99.90;;;;;;5033834;28;21065;-71
2021/12/17 13:29:13;;;;;;;15.45;7.07;;;8.70;99.90;;;;;;5033647;28;20487;-73
2021/12/17 13:32:00;;;;;;;10.60;6.70;;;8.70;99.90;;;;;;5033441;28;20202;-73
2021/12/17 13:34:31;;;;;;;11.57;7.10;;;8.90;99.90;;;;;;5034492;28;20460;-73
2021/12/17 13:37:11;;;;;;;11.33;6.70;;;8.90;99.90;;;;;;5033175;28;20477;-73
2021/12/17 13:39:42;;;;;;;7.37;5.33;;;8.90;99.90;;;;;;5034630;28;20453;-73
2021/12/17 13:42:11;;;;;;;8.67;5.40;;;8.80;99.90;;;;;;5034361;28;20446;-73
2021/12/17 13:44:42;;;;;;;8.10;5.63;;;8.80;99.90;;;;;;5033828;28;20449;-73
2021/12/17 13:47:12;;;;;;;12.20;6.00;;;8.80;99.90;;;;;;5032869;28;20568;-74
2021/12/17 13:49:42;;;;;;;18.07;6.03;;;8.70;99.90;;;;;;5033481;28;20454;-73
2021/12/17 13:52:10;;;;;;;8.43;5.40;;;8.70;99.90;;;;;;5034119;28;20515;-75
2021/12/17 13:54:37;;;;;;;10.30;6.10;;;8.70;99.90;;;;;;5034158;28;20541;-75
2021/12/17 13:57:06;;;;;;;8.60;5.27;;;8.70;99.90;;;;;;5031750;28;20485;-76
2021/12/17 13:59:34;;;;;;;9.37;5.77;;;8.60;99.90;;;;;;5016047;28;20854;-76
2021/12/17 14:02:09;;;;;;;10.00;5.70;;;8.60;99.90;;;;;;5020161;28;20712;-76
2021/12/17 14:04:37;;;;;;;11.20;5.40;;;8.60;99.90;;;;;;5034442;28;20453;-76
2021/12/17 14:07:10;;;;;;;6.50;5.23;;;8.60;99.90;;;;;;5033265;28;20520;-76
2021/12/17 14:09:37;;;;;;;7.73;5.60;;;8.60;99.90;;;;;;5033960;28;20503;-76
2021/12/17 14:12:12;;;;;;;10.93;5.93;;;8.60;99.90;;;;;;5035400;28;20519;-76
2021/12/17 14:14:39;;;;;;;7.70;5.70;;;8.60;99.90;;;;;;5024930;28;20449;-76
2021/12/17 14:17:09;;;;;;;7.10;5.20;;;8.60;99.90;;;;;;5033458;28;21009;-76
2021/12/17 14:19:43;;;;;;;11.83;5.53;;;8.60;99.90;;;;;;5033813;28;20985;-76
2021/12/17 14:22:28;;;;;;;9.07;5.80;;;8.50;99.90;;;;;;5026180;28;20458;-75
2021/12/17 14:24:56;;;;;;;13.83;6.40;;;8.50;99.90;;;;;;5024563;28;20465;-75
2021/12/17 14:27:23;;;;;;;10.70;6.23;;;8.50;99.90;;;;;;5049975;23;20532;-74
2021/12/17 14:30:03;;;;;;;8.17;5.10;;;8.60;99.90;;;;;;5030886;28;20528;-75
2021/12/17 14:32:30;;;;;;;9.43;5.65;;;8.60;99.90;;;;;;5030645;28;20818;-76
2021/12/17 14:34:56;;;;;;;10.47;6.00;;;8.60;99.90;;;;;;5031660;28;20202;-77
2021/12/17 14:37:24;;;;;;;9.60;5.80;;;8.60;99.90;;;;;;5041418;28;20884;-77
2021/12/17 14:39:54;;;;;;;8.90;5.63;;;8.60;99.90;;;;;;5043562;28;20457;-77
2021/12/17 14:42:34;;;;;;;8.50;6.27;;;8.60;99.90;;;;;;5046111;28;20879;-77
2021/12/17 14:45:06;;;;;;;13.80;5.80;;;8.60;99.90;;;;;;5048299;28;20461;-77
2021/12/17 14:47:39;;;;;;;7.43;5.70;;;8.50;99.90;;;;;;5036431;28;21017;-77
2021/12/17 15:01:15;;;;;;;14.93;7.20;;;8.40;99.90;;;;;;5012877;28;20436;-76
2021/12/17 15:03:42;;;;;;;13.43;7.00;;;8.40;99.90;;;;;;5038024;28;20824;-77
2021/12/17 15:06:11;;;;;;;10.50;6.33;;;8.40;99.90;;;;;;5043555;28;20472;-77
2021/12/17 15:08:39;;;;;;;8.83;5.90;;;8.30;99.90;;;;;;5046912;28;20547;-77
2021/12/17 15:11:14;;;;;;;8.97;6.00;;;8.30;99.90;;;;;;5036557;28;20452;-77
2021/12/17 15:13:41;;;;;;;11.90;5.67;;;8.30;99.90;;;;;;5035911;28;20488;-77
2021/12/17 15:16:08;;;;;;;7.50;6.00;;;8.30;99.90;;;;;;5038817;28;20477;-78
2021/12/17 15:18:37;;;;;;;7.07;5.30;;;8.30;99.90;;;;;;5036430;28;20595;-78
2021/12/17 15:21:03;;;;;;;9.57;5.53;;;8.30;99.90;;;;;;5050642;28;20514;-79
2021/12/17 15:23:30;;;;;;;7.00;5.30;;;8.20;99.90;;;;;;5044679;28;20494;-78
2021/12/17 15:25:59;;;;;;;14.23;5.53;;;8.20;99.90;;;;;;5052311;28;20488;-79
2021/12/17 15:28:27;;;;;;;7.93;5.50;;;8.20;99.90;;;;;;5053939;28;20464;-77
2021/12/17 15:30:56;;;;;;;10.37;5.30;;;8.20;99.90;;;;;;5036786;28;20450;-77
2021/12/17 15:33:23;;;;;;;8.33;5.60;;;8.20;99.90;;;;;;5038401;28;20927;-78
2021/12/17 15:35:52;;;;;;;10.47;5.60;;;8.20;99.90;;;;;;5048208;28;20480;-78